sensor_id;sensor_type;location;lat;lon;timestamp;temperature;humidity
67182;DHT22;54114;53.524;49.396;2023-05-06T00:00:19;15.00;40.40
67182;DHT22;54114;53.524;49.396;2023-05-06T00:02:47;15.10;40.80
67182;DHT22;54114;53.524;49.396;2023-05-06T00:05:14;15.00;40.90
67182;DHT22;54114;53.524;49.396;2023-05-06T00:07:44;15.00;41.20
67182;DHT22;54114;53.524;49.396;2023-05-06T00:10:13;15.00;40.40
67182;DHT22;54114;53.524;49.396;2023-05-06T00:12:40;15.10;40.10
67182;DHT22;54114;53.524;49.396;2023-05-06T00:15:07;15.10;39.80
67182;DHT22;54114;53.524;49.396;2023-05-06T00:17:36;15.10;39.60
67182;DHT22;54114;53.524;49.396;2023-05-06T00:20:03;15.10;39.50
67182;DHT22;54114;53.524;49.396;2023-05-06T00:22:30;15.10;39.50
67182;DHT22;54114;53.524;49.396;2023-05-06T00:24:57;15.10;39.30
67182;DHT22;54114;53.524;49.396;2023-05-06T00:27:26;15.10;39.30
67182;DHT22;54114;53.524;49.396;2023-05-06T00:29:53;15.20;39.30
67182;DHT22;54114;53.524;49.396;2023-05-06T00:32:19;15.20;39.40
67182;DHT22;54114;53.524;49.396;2023-05-06T00:34:49;15.20;39.50
67182;DHT22;54114;53.524;49.396;2023-05-06T00:37:16;15.20;39.60
67182;DHT22;54114;53.524;49.396;2023-05-06T00:39:45;15.20;39.60
67182;DHT22;54114;53.524;49.396;2023-05-06T00:42:14;15.10;39.50
67182;DHT22;54114;53.524;49.396;2023-05-06T00:44:43;15.10;39.50
67182;DHT22;54114;53.524;49.396;2023-05-06T00:47:10;15.10;39.50
67182;DHT22;54114;53.524;49.396;2023-05-06T00:49:37;15.10;39.40
67182;DHT22;54114;53.524;49.396;2023-05-06T00:52:06;15.10;39.30
67182;DHT22;54114;53.524;49.396;2023-05-06T00:54:33;15.10;39.30
67182;DHT22;54114;53.524;49.396;2023-05-06T00:57:03;15.10;39.40
67182;DHT22;54114;53.524;49.396;2023-05-06T00:59:33;15.10;39.40
67182;DHT22;54114;53.524;49.396;2023-05-06T01:02:02;15.20;39.50
67182;DHT22;54114;53.524;49.396;2023-05-06T01:04:31;15.20;39.60
67182;DHT22;54114;53.524;49.396;2023-05-06T01:07:07;15.20;39.70
67182;DHT22;54114;53.524;49.396;2023-05-06T01:10:32;15.30;39.80
67182;DHT22;54114;53.524;49.396;2023-05-06T01:13:04;15.20;39.90
67182;DHT22;54114;53.524;49.396;2023-05-06T01:15:37;15.20;40.20
67182;DHT22;54114;53.524;49.396;2023-05-06T01:18:12;15.20;40.50
67182;DHT22;54114;53.524;49.396;2023-05-06T01:20:44;15.20;40.60
67182;DHT22;54114;53.524;49.396;2023-05-06T01:23:14;15.20;40.50
67182;DHT22;54114;53.524;49.396;2023-05-06T01:25:44;15.20;40.30
67182;DHT22;54114;53.524;49.396;2023-05-06T01:28:12;15.30;40.00
67182;DHT22;54114;53.524;49.396;2023-05-06T01:30:48;15.40;39.60
67182;DHT22;54114;53.524;49.396;2023-05-06T01:33:38;15.50;39.20
67182;DHT22;54114;53.524;49.396;2023-05-06T01:39:58;15.70;39.10
67182;DHT22;54114;53.524;49.396;2023-05-06T01:42:26;15.80;38.80
67182;DHT22;54114;53.524;49.396;2023-05-06T01:44:58;15.90;38.70
67182;DHT22;54114;53.524;49.396;2023-05-06T01:47:29;16.00;38.50
67182;DHT22;54114;53.524;49.396;2023-05-06T01:49:58;16.10;38.40
67182;DHT22;54114;53.524;49.396;2023-05-06T01:52:26;16.20;38.20
67182;DHT22;54114;53.524;49.396;2023-05-06T01:54:55;16.40;38.00
67182;DHT22;54114;53.524;49.396;2023-05-06T01:57:21;16.50;37.80
67182;DHT22;54114;53.524;49.396;2023-05-06T01:59:53;16.60;37.60
67182;DHT22;54114;53.524;49.396;2023-05-06T02:02:20;16.80;37.50
67182;DHT22;54114;53.524;49.396;2023-05-06T02:04:46;16.90;37.30
67182;DHT22;54114;53.524;49.396;2023-05-06T02:07:13;16.90;37.00
67182;DHT22;54114;53.524;49.396;2023-05-06T02:09:41;17.10;36.80
67182;DHT22;54114;53.524;49.396;2023-05-06T02:12:08;17.20;36.60
67182;DHT22;54114;53.524;49.396;2023-05-06T02:14:35;17.30;36.20
67182;DHT22;54114;53.524;49.396;2023-05-06T02:17:04;17.40;36.00
67182;DHT22;54114;53.524;49.396;2023-05-06T02:19:33;17.50;35.70
67182;DHT22;54114;53.524;49.396;2023-05-06T02:22:02;17.60;35.20
67182;DHT22;54114;53.524;49.396;2023-05-06T02:24:29;17.70;35.00
67182;DHT22;54114;53.524;49.396;2023-05-06T02:26:56;17.80;34.90
67182;DHT22;54114;53.524;49.396;2023-05-06T02:29:22;17.90;34.60
67182;DHT22;54114;53.524;49.396;2023-05-06T02:31:52;18.00;34.10
67182;DHT22;54114;53.524;49.396;2023-05-06T02:34:26;18.20;33.90
67182;DHT22;54114;53.524;49.396;2023-05-06T02:36:55;18.30;33.70
67182;DHT22;54114;53.524;49.396;2023-05-06T02:39:22;18.40;33.70
67182;DHT22;54114;53.524;49.396;2023-05-06T02:41:49;18.50;33.60
67182;DHT22;54114;53.524;49.396;2023-05-06T02:44:18;18.60;33.30
67182;DHT22;54114;53.524;49.396;2023-05-06T02:46:44;18.70;33.20
67182;DHT22;54114;53.524;49.396;2023-05-06T02:49:11;18.80;33.10
67182;DHT22;54114;53.524;49.396;2023-05-06T02:51:38;19.00;33.00
67182;DHT22;54114;53.524;49.396;2023-05-06T02:54:07;19.10;32.90
67182;DHT22;54114;53.524;49.396;2023-05-06T02:56:36;19.30;32.60
67182;DHT22;54114;53.524;49.396;2023-05-06T02:59:03;19.50;32.40
67182;DHT22;54114;53.524;49.396;2023-05-06T03:01:32;19.70;32.00
67182;DHT22;54114;53.524;49.396;2023-05-06T03:03:58;19.90;31.60
67182;DHT22;54114;53.524;49.396;2023-05-06T03:06:25;20.10;31.10
67182;DHT22;54114;53.524;49.396;2023-05-06T03:08:51;20.20;30.90
67182;DHT22;54114;53.524;49.396;2023-05-06T03:11:18;20.40;30.60
67182;DHT22;54114;53.524;49.396;2023-05-06T03:13:46;20.50;30.40
67182;DHT22;54114;53.524;49.396;2023-05-06T03:16:13;20.60;30.40
67182;DHT22;54114;53.524;49.396;2023-05-06T03:18:42;20.70;30.20
67182;DHT22;54114;53.524;49.396;2023-05-06T03:21:09;20.80;30.00
67182;DHT22;54114;53.524;49.396;2023-05-06T03:23:37;20.90;30.80
67182;DHT22;54114;53.524;49.396;2023-05-06T03:26:04;21.00;30.40
67182;DHT22;54114;53.524;49.396;2023-05-06T03:28:31;21.00;30.40
67182;DHT22;54114;53.524;49.396;2023-05-06T03:30:57;21.10;30.50
67182;DHT22;54114;53.524;49.396;2023-05-06T03:33:24;21.20;30.30
67182;DHT22;54114;53.524;49.396;2023-05-06T03:35:51;21.30;30.10
67182;DHT22;54114;53.524;49.396;2023-05-06T03:38:17;21.40;30.10
67182;DHT22;54114;53.524;49.396;2023-05-06T03:40:44;21.40;30.10
67182;DHT22;54114;53.524;49.396;2023-05-06T03:43:11;21.60;30.10
67182;DHT22;54114;53.524;49.396;2023-05-06T03:45:37;21.80;30.60
67182;DHT22;54114;53.524;49.396;2023-05-06T03:48:04;22.00;29.90
67182;DHT22;54114;53.524;49.396;2023-05-06T03:50:31;22.20;29.60
67182;DHT22;54114;53.524;49.396;2023-05-06T03:52:57;22.30;29.40
67182;DHT22;54114;53.524;49.396;2023-05-06T03:55:24;22.30;29.30
67182;DHT22;54114;53.524;49.396;2023-05-06T03:57:51;22.40;29.20
67182;DHT22;54114;53.524;49.396;2023-05-06T04:00:20;22.40;29.20
67182;DHT22;54114;53.524;49.396;2023-05-06T04:02:47;22.50;29.20
67182;DHT22;54114;53.524;49.396;2023-05-06T04:05:13;22.50;29.30
67182;DHT22;54114;53.524;49.396;2023-05-06T04:07:41;22.40;29.30
67182;DHT22;54114;53.524;49.396;2023-05-06T04:10:08;22.40;29.40
67182;DHT22;54114;53.524;49.396;2023-05-06T04:12:35;22.50;29.40
67182;DHT22;54114;53.524;49.396;2023-05-06T04:15:01;22.60;29.50
67182;DHT22;54114;53.524;49.396;2023-05-06T04:17:28;22.70;29.50
67182;DHT22;54114;53.524;49.396;2023-05-06T04:19:55;22.80;29.50
67182;DHT22;54114;53.524;49.396;2023-05-06T04:22:22;23.00;29.40
67182;DHT22;54114;53.524;49.396;2023-05-06T04:24:49;23.30;29.20
67182;DHT22;54114;53.524;49.396;2023-05-06T04:27:16;23.70;29.20
67182;DHT22;54114;53.524;49.396;2023-05-06T04:29:45;24.10;29.00
67182;DHT22;54114;53.524;49.396;2023-05-06T04:32:15;24.40;28.70
67182;DHT22;54114;53.524;49.396;2023-05-06T04:34:42;24.70;28.30
67182;DHT22;54114;53.524;49.396;2023-05-06T04:37:12;25.00;27.80
67182;DHT22;54114;53.524;49.396;2023-05-06T04:39:38;25.30;27.40
67182;DHT22;54114;53.524;49.396;2023-05-06T04:42:07;25.50;27.10
67182;DHT22;54114;53.524;49.396;2023-05-06T04:44:36;25.70;26.90
67182;DHT22;54114;53.524;49.396;2023-05-06T04:47:08;25.80;26.50
67182;DHT22;54114;53.524;49.396;2023-05-06T04:49:35;25.90;26.00
67182;DHT22;54114;53.524;49.396;2023-05-06T04:52:02;25.90;26.00
67182;DHT22;54114;53.524;49.396;2023-05-06T04:54:29;26.10;25.80
67182;DHT22;54114;53.524;49.396;2023-05-06T04:56:58;26.30;25.90
67182;DHT22;54114;53.524;49.396;2023-05-06T04:59:28;26.30;25.70
67182;DHT22;54114;53.524;49.396;2023-05-06T05:01:54;26.30;25.80
67182;DHT22;54114;53.524;49.396;2023-05-06T05:04:26;26.30;25.40
67182;DHT22;54114;53.524;49.396;2023-05-06T05:06:56;26.20;25.60
67182;DHT22;54114;53.524;49.396;2023-05-06T05:09:25;26.20;25.50
67182;DHT22;54114;53.524;49.396;2023-05-06T05:11:56;26.20;25.40
67182;DHT22;54114;53.524;49.396;2023-05-06T05:14:26;26.00;25.50
67182;DHT22;54114;53.524;49.396;2023-05-06T05:16:55;26.00;25.70
67182;DHT22;54114;53.524;49.396;2023-05-06T05:19:24;26.00;25.80
67182;DHT22;54114;53.524;49.396;2023-05-06T05:21:59;26.20;25.90
67182;DHT22;54114;53.524;49.396;2023-05-06T05:24:28;26.60;25.80
67182;DHT22;54114;53.524;49.396;2023-05-06T05:26:57;26.80;25.50
67182;DHT22;54114;53.524;49.396;2023-05-06T05:29:24;27.00;25.10
67182;DHT22;54114;53.524;49.396;2023-05-06T05:31:53;27.00;25.00
67182;DHT22;54114;53.524;49.396;2023-05-06T05:34:22;27.00;25.10
67182;DHT22;54114;53.524;49.396;2023-05-06T05:36:51;27.20;25.30
67182;DHT22;54114;53.524;49.396;2023-05-06T05:39:22;27.40;25.30
67182;DHT22;54114;53.524;49.396;2023-05-06T05:41:53;27.50;24.90
67182;DHT22;54114;53.524;49.396;2023-05-06T05:44:22;27.50;24.70
67182;DHT22;54114;53.524;49.396;2023-05-06T05:46:49;27.60;24.90
67182;DHT22;54114;53.524;49.396;2023-05-06T05:49:16;27.60;24.70
67182;DHT22;54114;53.524;49.396;2023-05-06T05:51:47;27.60;24.80
67182;DHT22;54114;53.524;49.396;2023-05-06T05:54:16;27.50;24.80
67182;DHT22;54114;53.524;49.396;2023-05-06T05:56:47;27.50;25.00
67182;DHT22;54114;53.524;49.396;2023-05-06T05:59:17;27.50;25.30
67182;DHT22;54114;53.524;49.396;2023-05-06T06:01:46;27.50;25.30
67182;DHT22;54114;53.524;49.396;2023-05-06T06:04:15;27.50;25.50
67182;DHT22;54114;53.524;49.396;2023-05-06T06:06:47;27.40;25.60
67182;DHT22;54114;53.524;49.396;2023-05-06T06:09:15;27.40;25.70
67182;DHT22;54114;53.524;49.396;2023-05-06T06:11:44;27.50;25.90
67182;DHT22;54114;53.524;49.396;2023-05-06T06:14:16;27.80;25.90
67182;DHT22;54114;53.524;49.396;2023-05-06T06:16:45;28.10;26.00
67182;DHT22;54114;53.524;49.396;2023-05-06T06:19:13;28.50;25.90
67182;DHT22;54114;53.524;49.396;2023-05-06T06:21:42;28.90;25.50
67182;DHT22;54114;53.524;49.396;2023-05-06T06:24:08;28.90;25.10
67182;DHT22;54114;53.524;49.396;2023-05-06T06:26:35;28.70;25.10
67182;DHT22;54114;53.524;49.396;2023-05-06T06:29:02;28.50;25.10
67182;DHT22;54114;53.524;49.396;2023-05-06T06:31:30;28.00;25.40
67182;DHT22;54114;53.524;49.396;2023-05-06T06:34:00;27.60;25.70
67182;DHT22;54114;53.524;49.396;2023-05-06T06:36:31;27.30;26.10
67182;DHT22;54114;53.524;49.396;2023-05-06T06:39:00;27.10;26.30
67182;DHT22;54114;53.524;49.396;2023-05-06T06:41:27;27.10;26.60
67182;DHT22;54114;53.524;49.396;2023-05-06T06:43:56;27.10;26.60
67182;DHT22;54114;53.524;49.396;2023-05-06T06:46:27;27.10;26.90
67182;DHT22;54114;53.524;49.396;2023-05-06T06:48:54;27.00;26.80
67182;DHT22;54114;53.524;49.396;2023-05-06T06:51:21;26.90;26.90
67182;DHT22;54114;53.524;49.396;2023-05-06T06:53:50;26.70;27.00
67182;DHT22;54114;53.524;49.396;2023-05-06T06:56:19;26.60;27.20
67182;DHT22;54114;53.524;49.396;2023-05-06T06:58:50;26.50;27.20
67182;DHT22;54114;53.524;49.396;2023-05-06T07:01:21;26.40;27.40
67182;DHT22;54114;53.524;49.396;2023-05-06T07:03:48;26.40;27.70
67182;DHT22;54114;53.524;49.396;2023-05-06T07:06:15;26.50;27.80
67182;DHT22;54114;53.524;49.396;2023-05-06T07:08:44;26.80;27.70
67182;DHT22;54114;53.524;49.396;2023-05-06T07:11:11;27.00;27.50
67182;DHT22;54114;53.524;49.396;2023-05-06T07:13:39;26.90;27.70
67182;DHT22;54114;53.524;49.396;2023-05-06T07:16:08;27.00;29.30
67182;DHT22;54114;53.524;49.396;2023-05-06T07:18:37;27.00;30.20
67182;DHT22;54114;53.524;49.396;2023-05-06T07:21:09;26.90;31.10
67182;DHT22;54114;53.524;49.396;2023-05-06T07:23:38;26.70;31.60
67182;DHT22;54114;53.524;49.396;2023-05-06T07:26:04;26.50;32.30
67182;DHT22;54114;53.524;49.396;2023-05-06T07:28:33;26.20;32.60
67182;DHT22;54114;53.524;49.396;2023-05-06T07:31:00;26.10;33.10
67182;DHT22;54114;53.524;49.396;2023-05-06T07:33:26;25.80;33.40
67182;DHT22;54114;53.524;49.396;2023-05-06T07:35:53;25.70;33.60
67182;DHT22;54114;53.524;49.396;2023-05-06T07:38:25;25.70;34.00
67182;DHT22;54114;53.524;49.396;2023-05-06T07:40:52;25.60;34.10
67182;DHT22;54114;53.524;49.396;2023-05-06T07:43:21;25.60;34.20
67182;DHT22;54114;53.524;49.396;2023-05-06T07:45:48;25.70;34.40
67182;DHT22;54114;53.524;49.396;2023-05-06T07:48:14;25.80;34.30
67182;DHT22;54114;53.524;49.396;2023-05-06T07:50:41;25.60;34.20
67182;DHT22;54114;53.524;49.396;2023-05-06T07:53:07;25.40;34.50
67182;DHT22;54114;53.524;49.396;2023-05-06T07:55:34;25.10;34.70
67182;DHT22;54114;53.524;49.396;2023-05-06T07:58:02;24.90;35.00
67182;DHT22;54114;53.524;49.396;2023-05-06T08:00:31;24.70;35.60
67182;DHT22;54114;53.524;49.396;2023-05-06T08:02:58;24.70;35.90
67182;DHT22;54114;53.524;49.396;2023-05-06T08:05:29;24.50;37.20
67182;DHT22;54114;53.524;49.396;2023-05-06T08:08:02;24.50;39.00
67182;DHT22;54114;53.524;49.396;2023-05-06T08:10:29;24.50;39.30
67182;DHT22;54114;53.524;49.396;2023-05-06T08:12:56;24.40;39.10
67182;DHT22;54114;53.524;49.396;2023-05-06T08:15:24;24.30;39.40
67182;DHT22;54114;53.524;49.396;2023-05-06T08:17:53;24.20;40.10
67182;DHT22;54114;53.524;49.396;2023-05-06T08:20:25;23.90;40.50
67182;DHT22;54114;53.524;49.396;2023-05-06T08:22:52;23.50;41.30
67182;DHT22;54114;53.524;49.396;2023-05-06T08:25:21;22.90;42.30
67182;DHT22;54114;53.524;49.396;2023-05-06T08:27:48;22.40;43.50
67182;DHT22;54114;53.524;49.396;2023-05-06T08:30:14;21.90;44.80
67182;DHT22;54114;53.524;49.396;2023-05-06T08:32:43;21.40;46.20
67182;DHT22;54114;53.524;49.396;2023-05-06T08:35:10;20.90;47.30
67182;DHT22;54114;53.524;49.396;2023-05-06T08:37:37;20.50;48.20
67182;DHT22;54114;53.524;49.396;2023-05-06T08:40:18;20.10;49.10
67182;DHT22;54114;53.524;49.396;2023-05-06T08:42:48;19.60;50.60
67182;DHT22;54114;53.524;49.396;2023-05-06T08:45:18;19.00;52.10
67182;DHT22;54114;53.524;49.396;2023-05-06T08:47:48;18.50;53.50
67182;DHT22;54114;53.524;49.396;2023-05-06T08:50:15;18.20;54.20
67182;DHT22;54114;53.524;49.396;2023-05-06T08:52:44;17.90;54.90
67182;DHT22;54114;53.524;49.396;2023-05-06T08:55:16;17.60;56.10
67182;DHT22;54114;53.524;49.396;2023-05-06T08:57:44;17.30;56.80
67182;DHT22;54114;53.524;49.396;2023-05-06T09:00:16;17.10;57.60
67182;DHT22;54114;53.524;49.396;2023-05-06T09:02:43;16.90;58.40
67182;DHT22;54114;53.524;49.396;2023-05-06T09:05:10;16.70;59.00
67182;DHT22;54114;53.524;49.396;2023-05-06T09:07:42;16.60;59.90
67182;DHT22;54114;53.524;49.396;2023-05-06T09:10:13;16.60;60.60
67182;DHT22;54114;53.524;49.396;2023-05-06T09:12:42;16.60;60.80
67182;DHT22;54114;53.524;49.396;2023-05-06T09:15:09;16.60;60.80
67182;DHT22;54114;53.524;49.396;2023-05-06T09:17:36;16.60;60.90
67182;DHT22;54114;53.524;49.396;2023-05-06T09:20:06;16.60;61.10
67182;DHT22;54114;53.524;49.396;2023-05-06T09:22:37;16.50;60.60
67182;DHT22;54114;53.524;49.396;2023-05-06T09:25:11;16.40;59.90
67182;DHT22;54114;53.524;49.396;2023-05-06T09:27:42;16.30;59.80
67182;DHT22;54114;53.524;49.396;2023-05-06T09:30:11;16.30;59.30
67182;DHT22;54114;53.524;49.396;2023-05-06T09:32:41;16.20;59.00
67182;DHT22;54114;53.524;49.396;2023-05-06T09:35:14;16.00;58.80
67182;DHT22;54114;53.524;49.396;2023-05-06T09:37:43;15.80;58.80
67182;DHT22;54114;53.524;49.396;2023-05-06T09:40:12;15.60;58.70
67182;DHT22;54114;53.524;49.396;2023-05-06T09:42:44;15.50;58.80
67182;DHT22;54114;53.524;49.396;2023-05-06T09:45:17;15.40;59.30
67182;DHT22;54114;53.524;49.396;2023-05-06T09:47:45;15.40;59.10
67182;DHT22;54114;53.524;49.396;2023-05-06T09:50:14;15.40;59.00
67182;DHT22;54114;53.524;49.396;2023-05-06T09:52:48;15.40;58.80
67182;DHT22;54114;53.524;49.396;2023-05-06T09:55:21;15.50;58.80
67182;DHT22;54114;53.524;49.396;2023-05-06T09:57:52;15.50;59.40
67182;DHT22;54114;53.524;49.396;2023-05-06T10:00:23;15.50;58.60
67182;DHT22;54114;53.524;49.396;2023-05-06T10:02:55;15.50;58.50
67182;DHT22;54114;53.524;49.396;2023-05-06T10:05:30;15.40;58.70
67182;DHT22;54114;53.524;49.396;2023-05-06T10:08:00;15.30;58.50
67182;DHT22;54114;53.524;49.396;2023-05-06T10:10:29;15.20;59.10
67182;DHT22;54114;53.524;49.396;2023-05-06T10:12:56;15.10;59.30
67182;DHT22;54114;53.524;49.396;2023-05-06T10:15:24;15.00;59.50
67182;DHT22;54114;53.524;49.396;2023-05-06T10:17:52;14.90;59.90
67182;DHT22;54114;53.524;49.396;2023-05-06T10:20:23;14.80;60.20
67182;DHT22;54114;53.524;49.396;2023-05-06T10:25:38;14.80;60.50
67182;DHT22;54114;53.524;49.396;2023-05-06T10:28:08;14.70;60.70
67182;DHT22;54114;53.524;49.396;2023-05-06T10:30:37;14.70;60.70
67182;DHT22;54114;53.524;49.396;2023-05-06T10:33:09;14.60;60.80
67182;DHT22;54114;53.524;49.396;2023-05-06T10:38:30;14.50;60.70
67182;DHT22;54114;53.524;49.396;2023-05-06T10:41:01;14.50;60.40
67182;DHT22;54114;53.524;49.396;2023-05-06T10:43:30;14.40;60.90
67182;DHT22;54114;53.524;49.396;2023-05-06T10:48:35;14.30;60.90
67182;DHT22;54114;53.524;49.396;2023-05-06T10:54:09;14.00;61.40
67182;DHT22;54114;53.524;49.396;2023-05-06T10:59:25;14.00;61.40
67182;DHT22;54114;53.524;49.396;2023-05-06T11:02:06;13.90;61.30
67182;DHT22;54114;53.524;49.396;2023-05-06T11:04:36;13.80;61.40
67182;DHT22;54114;53.524;49.396;2023-05-06T11:07:12;13.70;61.50
67182;DHT22;54114;53.524;49.396;2023-05-06T11:10:06;13.60;62.10
67182;DHT22;54114;53.524;49.396;2023-05-06T11:15:26;13.60;62.50
67182;DHT22;54114;53.524;49.396;2023-05-06T11:26:08;14.00;64.20
67182;DHT22;54114;53.524;49.396;2023-05-06T11:28:42;14.10;63.70
67182;DHT22;54114;53.524;49.396;2023-05-06T11:31:14;14.20;63.30
67182;DHT22;54114;53.524;49.396;2023-05-06T11:33:50;14.10;62.80
67182;DHT22;54114;53.524;49.396;2023-05-06T11:36:23;14.20;62.50
67182;DHT22;54114;53.524;49.396;2023-05-06T11:38:53;14.30;61.60
67182;DHT22;54114;53.524;49.396;2023-05-06T11:41:24;14.40;61.50
67182;DHT22;54114;53.524;49.396;2023-05-06T11:43:55;14.40;61.30
67182;DHT22;54114;53.524;49.396;2023-05-06T11:46:23;14.40;61.00
67182;DHT22;54114;53.524;49.396;2023-05-06T11:48:54;14.40;61.00
67182;DHT22;54114;53.524;49.396;2023-05-06T11:51:24;14.50;61.30
67182;DHT22;54114;53.524;49.396;2023-05-06T11:54:02;14.50;61.10
67182;DHT22;54114;53.524;49.396;2023-05-06T11:56:48;14.60;61.30
67182;DHT22;54114;53.524;49.396;2023-05-06T11:59:35;14.60;61.10
67182;DHT22;54114;53.524;49.396;2023-05-06T12:02:08;14.70;61.20
67182;DHT22;54114;53.524;49.396;2023-05-06T12:04:49;14.70;60.50
67182;DHT22;54114;53.524;49.396;2023-05-06T12:07:18;14.80;59.60
67182;DHT22;54114;53.524;49.396;2023-05-06T12:09:49;14.90;60.00
67182;DHT22;54114;53.524;49.396;2023-05-06T12:12:20;14.90;59.00
67182;DHT22;54114;53.524;49.396;2023-05-06T12:14:49;14.90;58.60
67182;DHT22;54114;53.524;49.396;2023-05-06T12:17:20;14.80;58.70
67182;DHT22;54114;53.524;49.396;2023-05-06T12:19:47;14.80;58.70
67182;DHT22;54114;53.524;49.396;2023-05-06T12:22:15;14.90;58.70
67182;DHT22;54114;53.524;49.396;2023-05-06T12:24:46;14.90;58.50
67182;DHT22;54114;53.524;49.396;2023-05-06T12:29:59;14.80;58.50
67182;DHT22;54114;53.524;49.396;2023-05-06T12:32:26;14.80;58.20
67182;DHT22;54114;53.524;49.396;2023-05-06T12:34:53;14.90;58.10
67182;DHT22;54114;53.524;49.396;2023-05-06T12:37:27;14.90;59.10
67182;DHT22;54114;53.524;49.396;2023-05-06T12:39:55;14.90;59.00
67182;DHT22;54114;53.524;49.396;2023-05-06T12:42:27;15.00;58.80
67182;DHT22;54114;53.524;49.396;2023-05-06T12:45:14;15.10;58.70
67182;DHT22;54114;53.524;49.396;2023-05-06T12:47:51;15.20;58.70
67182;DHT22;54114;53.524;49.396;2023-05-06T12:50:35;15.20;58.10
67182;DHT22;54114;53.524;49.396;2023-05-06T12:53:08;15.20;57.50
67182;DHT22;54114;53.524;49.396;2023-05-06T12:55:41;15.10;57.00
67182;DHT22;54114;53.524;49.396;2023-05-06T12:58:18;15.10;56.90
67182;DHT22;54114;53.524;49.396;2023-05-06T13:00:45;15.10;56.30
67182;DHT22;54114;53.524;49.396;2023-05-06T13:03:15;15.10;56.30
67182;DHT22;54114;53.524;49.396;2023-05-06T13:05:44;15.10;56.40
67182;DHT22;54114;53.524;49.396;2023-05-06T13:08:17;15.30;56.60
67182;DHT22;54114;53.524;49.396;2023-05-06T13:10:46;15.50;56.20
67182;DHT22;54114;53.524;49.396;2023-05-06T13:13:15;15.60;55.50
67182;DHT22;54114;53.524;49.396;2023-05-06T13:15:44;15.60;54.60
67182;DHT22;54114;53.524;49.396;2023-05-06T13:18:13;15.80;54.70
67182;DHT22;54114;53.524;49.396;2023-05-06T13:20:40;16.00;54.60
67182;DHT22;54114;53.524;49.396;2023-05-06T13:23:06;16.10;54.30
67182;DHT22;54114;53.524;49.396;2023-05-06T13:25:33;16.30;53.90
67182;DHT22;54114;53.524;49.396;2023-05-06T13:28:02;16.50;53.70
67182;DHT22;54114;53.524;49.396;2023-05-06T13:30:29;16.60;53.10
67182;DHT22;54114;53.524;49.396;2023-05-06T13:32:57;16.70;52.70
67182;DHT22;54114;53.524;49.396;2023-05-06T13:35:23;16.90;52.70
67182;DHT22;54114;53.524;49.396;2023-05-06T13:37:51;17.10;52.00
67182;DHT22;54114;53.524;49.396;2023-05-06T13:40:20;17.10;51.80
67182;DHT22;54114;53.524;49.396;2023-05-06T13:42:49;17.10;51.50
67182;DHT22;54114;53.524;49.396;2023-05-06T13:45:18;17.00;51.40
67182;DHT22;54114;53.524;49.396;2023-05-06T13:47:45;16.90;50.60
67182;DHT22;54114;53.524;49.396;2023-05-06T13:50:17;16.90;50.70
67182;DHT22;54114;53.524;49.396;2023-05-06T13:52:45;16.90;50.60
67182;DHT22;54114;53.524;49.396;2023-05-06T13:55:12;16.90;50.30
67182;DHT22;54114;53.524;49.396;2023-05-06T13:57:43;16.90;50.20
67182;DHT22;54114;53.524;49.396;2023-05-06T14:00:13;16.90;50.40
67182;DHT22;54114;53.524;49.396;2023-05-06T14:02:47;17.00;50.00
67182;DHT22;54114;53.524;49.396;2023-05-06T14:05:16;17.00;49.50
67182;DHT22;54114;53.524;49.396;2023-05-06T14:07:45;17.10;49.40
67182;DHT22;54114;53.524;49.396;2023-05-06T14:10:18;17.10;49.40
67182;DHT22;54114;53.524;49.396;2023-05-06T14:12:52;17.10;49.60
67182;DHT22;54114;53.524;49.396;2023-05-06T14:15:18;17.00;49.70
67182;DHT22;54114;53.524;49.396;2023-05-06T14:17:49;17.00;49.60
67182;DHT22;54114;53.524;49.396;2023-05-06T14:20:19;17.00;49.70
67182;DHT22;54114;53.524;49.396;2023-05-06T14:22:46;16.90;49.90
67182;DHT22;54114;53.524;49.396;2023-05-06T14:25:15;16.80;50.10
67182;DHT22;54114;53.524;49.396;2023-05-06T14:27:44;16.80;50.20
67182;DHT22;54114;53.524;49.396;2023-05-06T14:30:16;16.80;50.10
67182;DHT22;54114;53.524;49.396;2023-05-06T14:32:43;16.70;50.10
67182;DHT22;54114;53.524;49.396;2023-05-06T14:35:12;16.70;50.00
67182;DHT22;54114;53.524;49.396;2023-05-06T14:37:41;16.60;49.90
67182;DHT22;54114;53.524;49.396;2023-05-06T14:40:08;16.50;49.70
67182;DHT22;54114;53.524;49.396;2023-05-06T14:42:39;16.40;49.50
67182;DHT22;54114;53.524;49.396;2023-05-06T14:45:12;16.40;49.70
67182;DHT22;54114;53.524;49.396;2023-05-06T14:47:41;16.30;49.80
67182;DHT22;54114;53.524;49.396;2023-05-06T14:50:08;16.30;49.90
67182;DHT22;54114;53.524;49.396;2023-05-06T14:52:37;16.30;49.90
67182;DHT22;54114;53.524;49.396;2023-05-06T14:55:06;16.20;49.90
67182;DHT22;54114;53.524;49.396;2023-05-06T14:57:34;16.20;49.80
67182;DHT22;54114;53.524;49.396;2023-05-06T15:00:06;16.20;49.70
67182;DHT22;54114;53.524;49.396;2023-05-06T15:02:39;16.10;49.80
67182;DHT22;54114;53.524;49.396;2023-05-06T15:05:10;16.00;50.10
67182;DHT22;54114;53.524;49.396;2023-05-06T15:07:42;16.00;50.30
67182;DHT22;54114;53.524;49.396;2023-05-06T15:10:11;16.00;50.40
67182;DHT22;54114;53.524;49.396;2023-05-06T15:12:38;15.90;50.60
67182;DHT22;54114;53.524;49.396;2023-05-06T15:15:05;15.80;50.80
67182;DHT22;54114;53.524;49.396;2023-05-06T15:17:33;15.70;51.60
67182;DHT22;54114;53.524;49.396;2023-05-06T15:19:59;15.70;51.30
67182;DHT22;54114;53.524;49.396;2023-05-06T15:22:28;15.70;51.50
67182;DHT22;54114;53.524;49.396;2023-05-06T15:24:55;15.70;51.50
67182;DHT22;54114;53.524;49.396;2023-05-06T15:27:22;15.80;51.50
67182;DHT22;54114;53.524;49.396;2023-05-06T15:29:48;15.80;51.60
67182;DHT22;54114;53.524;49.396;2023-05-06T15:32:15;15.80;51.60
67182;DHT22;54114;53.524;49.396;2023-05-06T15:34:42;15.80;51.60
67182;DHT22;54114;53.524;49.396;2023-05-06T15:37:08;15.80;51.50
67182;DHT22;54114;53.524;49.396;2023-05-06T15:39:36;15.70;51.40
67182;DHT22;54114;53.524;49.396;2023-05-06T15:42:06;15.70;51.50
67182;DHT22;54114;53.524;49.396;2023-05-06T15:44:32;15.70;51.60
67182;DHT22;54114;53.524;49.396;2023-05-06T15:46:59;15.70;51.60
67182;DHT22;54114;53.524;49.396;2023-05-06T15:49:26;15.70;51.70
67182;DHT22;54114;53.524;49.396;2023-05-06T15:51:55;15.70;51.70
67182;DHT22;54114;53.524;49.396;2023-05-06T15:54:26;15.70;51.70
67182;DHT22;54114;53.524;49.396;2023-05-06T15:56:56;15.70;51.80
67182;DHT22;54114;53.524;49.396;2023-05-06T15:59:25;15.70;51.90